createdAt,value
2023-02-09T00:04:28.267Z,103230.47
2023-02-09T00:09:32.682Z,103227.69
2023-02-09T00:14:35.902Z,103229.22
2023-02-09T00:19:39.093Z,103225.88
2023-02-09T00:24:43.576Z,103226.78
2023-02-09T00:29:46.623Z,103235.25
2023-02-09T00:34:52.556Z,103240.44
2023-02-09T00:39:56.985Z,103231.41
2023-02-09T00:44:59.915Z,103221.81
2023-02-09T00:50:06.682Z,103221.66
2023-02-09T00:55:11.886Z,103206.13
2023-02-09T01:00:18.409Z,103216.09
2023-02-09T01:05:21.400Z,103222.16
2023-02-09T01:10:26.004Z,103223.09
2023-02-09T01:15:29.117Z,103220.31
2023-02-09T01:20:32.354Z,103226.22
2023-02-09T01:25:37.697Z,103230.81
2023-02-09T01:30:41.008Z,103224.00
2023-02-09T01:35:44.034Z,103241.31
2023-02-09T01:40:50.731Z,103218.25
2023-02-09T01:45:55.411Z,103232.63
2023-02-09T01:51:02.298Z,103205.53
2023-02-09T01:56:11.515Z,103223.97
2023-02-09T02:01:15.762Z,103217.88
2023-02-09T02:06:20.269Z,103209.38
2023-02-09T02:11:27.687Z,103203.84
2023-02-09T02:16:46.936Z,103201.09
2023-02-09T02:22:18.972Z,103190.19
2023-02-09T02:27:33.274Z,103198.66
2023-02-09T02:32:57.387Z,103173.22
2023-02-09T02:38:08.751Z,103177.28
2023-02-09T02:43:23.534Z,103182.97
2023-02-09T02:48:36.786Z,103180.19
2023-02-09T02:53:44.695Z,103163.84
2023-02-09T02:58:52.218Z,103161.03
2023-02-09T03:04:09.981Z,103161.75
2023-02-09T03:09:13.122Z,103168.78
2023-02-09T03:14:29.133Z,103160.88
2023-02-09T03:19:42.045Z,103144.09
2023-02-09T03:24:52.713Z,103156.44
2023-02-09T03:30:01.051Z,103147.38
2023-02-09T03:35:07.889Z,103134.16
2023-02-09T03:40:11.464Z,103127.34
2023-02-09T03:45:14.570Z,103102.50
2023-02-09T03:50:19.230Z,103099.16
2023-02-09T03:55:22.152Z,103079.28
2023-02-09T04:00:25.451Z,103087.75
2023-02-09T04:05:29.925Z,103108.16
2023-02-09T04:10:32.886Z,103110.75
2023-02-09T04:15:36.610Z,103126.75
2023-02-09T04:20:41.039Z,103119.78
2023-02-09T04:25:44.427Z,103100.81
2023-02-09T04:30:52.361Z,103096.91
2023-02-09T04:35:56.855Z,103105.41
2023-02-09T04:41:02.505Z,103117.16
2023-02-09T04:46:05.902Z,103107.63
2023-02-09T04:51:10.997Z,103113.84
2023-02-09T04:56:15.824Z,103113.84
2023-02-09T05:01:22.077Z,103118.97
2023-02-09T05:06:26.853Z,103138.88
2023-02-09T05:11:29.864Z,103138.88
2023-02-09T05:16:32.964Z,103128.19
2023-02-09T05:21:37.459Z,103133.13
2023-02-09T05:26:40.527Z,103118.97
2023-02-09T05:31:43.770Z,103125.03
2023-02-09T05:36:48.361Z,103130.53
2023-02-09T05:42:09.079Z,103138.28
2023-02-09T05:47:12.359Z,103124.63
2023-02-09T05:52:17.431Z,103135.09
2023-02-09T05:57:20.527Z,103129.06
2023-02-09T06:02:23.539Z,103139.91
2023-02-09T06:07:28.080Z,103146.88
2023-02-09T06:12:31.033Z,103158.66
2023-02-09T06:17:34.150Z,103166.56
2023-02-09T06:22:38.689Z,103180.22
2023-02-09T06:27:41.714Z,103184.03
2023-02-09T06:32:44.722Z,103180.53
2023-02-09T06:37:49.289Z,103196.59
2023-02-09T06:42:52.575Z,103187.72
2023-02-09T06:47:55.992Z,103192.53
2023-02-09T06:53:00.846Z,103205.44
2023-02-09T06:58:04.096Z,103205.03
2023-02-09T07:03:07.270Z,103218.09
2023-02-09T07:08:12.020Z,103213.34
2023-02-09T07:13:15.028Z,103210.59
2023-02-09T07:18:18.360Z,103207.25
2023-02-09T07:23:23.046Z,103207.66
2023-02-09T07:28:26.079Z,103191.31
2023-02-09T07:33:29.238Z,103191.47
2023-02-09T07:38:34.919Z,103194.28
2023-02-09T07:43:38.246Z,103179.56
2023-02-09T07:48:41.240Z,103181.25
2023-02-09T07:53:45.822Z,103159.56
2023-02-09T07:58:48.969Z,103173.22
2023-02-09T08:03:52.386Z,103168.81
2023-02-09T08:08:57.217Z,103181.94
2023-02-09T08:14:04.707Z,103177.16
2023-02-09T08:19:12.525Z,103185.84
2023-02-09T08:24:19.684Z,103199.09
2023-02-09T08:29:23.110Z,103202.06
2023-02-09T08:34:26.243Z,103197.69
2023-02-09T08:39:30.875Z,103198.75
2023-02-09T08:44:34.148Z,103196.16
2023-02-09T08:49:37.262Z,103181.41
2023-02-09T08:54:41.943Z,103186.34
2023-02-09T08:59:44.970Z,103182.25
2023-02-09T09:04:48.285Z,103189.59
2023-02-09T09:09:53.189Z,103197.88
2023-02-09T09:14:56.463Z,103184.53
2023-02-09T09:19:59.882Z,103198.13
2023-02-09T09:25:06.434Z,103205.47
2023-02-09T09:30:10.628Z,103188.50
2023-02-09T09:35:14.020Z,103208.56
2023-02-09T09:40:22.736Z,103182.78
2023-02-09T09:45:28.098Z,103191.88
2023-02-09T09:50:33.858Z,103188.06
2023-02-09T09:55:39.606Z,103204.00
2023-02-09T10:00:44.569Z,103221.91
2023-02-09T10:05:50.696Z,103221.56
2023-02-09T10:10:58.983Z,103229.66
2023-02-09T10:16:03.300Z,103233.16
2023-02-09T10:21:08.745Z,103230.31
2023-02-09T10:26:23.009Z,103224.91
2023-02-09T10:31:30.441Z,103231.50
2023-02-09T10:36:36.886Z,103247.47
2023-02-09T10:41:43.833Z,103253.59
2023-02-09T10:46:48.277Z,103229.38
2023-02-09T10:51:52.294Z,103237.97
2023-02-09T10:56:57.012Z,103252.97
2023-02-09T11:02:02.108Z,103242.25
2023-02-09T11:07:11.492Z,103251.75
2023-02-09T11:12:16.215Z,103253.25
2023-02-09T11:17:24.264Z,103228.13
2023-02-09T11:22:52.590Z,103237.47
2023-02-09T11:28:12.973Z,103250.81
2023-02-09T11:33:23.141Z,103247.47
2023-02-09T11:38:34.633Z,103232.72
2023-02-09T11:43:42.427Z,103238.91
2023-02-09T11:48:51.120Z,103227.97
2023-02-09T11:54:03.294Z,103233.81
2023-02-09T11:59:11.577Z,103233.22
2023-02-09T12:04:19.941Z,103239.25
2023-02-09T12:09:44.723Z,103255.06
2023-02-09T12:15:12.768Z,103234.19
2023-02-09T12:20:27.061Z,103240.50
2023-02-09T12:26:00.958Z,103238.88
2023-02-09T12:31:14.381Z,103222.88
2023-02-09T12:36:30.349Z,103211.94
2023-02-09T12:42:20.369Z,103210.44
2023-02-09T12:47:46.295Z,103219.88
2023-02-09T12:53:22.742Z,103207.75
2023-02-09T12:58:36.585Z,103206.91
2023-02-09T13:03:52.540Z,103206.53
2023-02-09T13:08:58.230Z,103201.41
2023-02-09T13:14:06.075Z,103187.19
2023-02-09T13:19:24.275Z,103188.53
2023-02-09T13:24:36.663Z,103199.28
2023-02-09T13:29:48.877Z,103198.94
2023-02-09T13:34:58.882Z,103194.53
2023-02-09T13:40:04.583Z,103207.13
2023-02-09T13:45:18.829Z,103206.34
2023-02-09T13:50:24.860Z,103200.88
2023-02-09T13:55:33.141Z,103208.06
2023-02-09T14:00:41.573Z,103216.56
2023-02-09T14:05:51.891Z,103211.75
2023-02-09T14:10:59.874Z,103216.97
2023-02-09T14:16:07.911Z,103211.44
2023-02-09T14:21:34.287Z,103211.97
2023-02-09T14:26:47.804Z,103214.03
2023-02-09T14:31:52.949Z,103218.06
2023-02-09T14:36:59.480Z,103218.16
2023-02-09T14:42:18.242Z,103230.16
2023-02-09T14:47:38.674Z,103227.63
2023-02-09T14:52:47.479Z,103237.44
2023-02-09T14:57:50.557Z,103241.63
2023-02-09T15:02:54.786Z,103245.50
2023-02-09T15:08:05.812Z,103244.50
2023-02-09T15:13:11.929Z,103246.44
2023-02-09T15:18:19.837Z,103271.97
2023-02-09T15:23:24.279Z,103273.75
2023-02-09T15:28:30.126Z,103262.28
2023-02-09T15:33:33.360Z,103269.75
2023-02-09T15:38:38.166Z,103273.63
2023-02-09T15:43:58.835Z,103287.31
2023-02-09T15:49:05.672Z,103275.34
2023-02-09T15:54:15.729Z,103290.25
2023-02-09T15:59:21.068Z,103296.09
2023-02-09T16:04:24.133Z,103289.38
2023-02-09T16:09:30.949Z,103297.50
2023-02-09T16:14:34.077Z,103306.28
2023-02-09T16:19:39.875Z,103312.13
2023-02-09T16:24:46.834Z,103306.00
2023-02-09T16:29:50.061Z,103310.63
2023-02-09T16:35:02.040Z,103334.09
2023-02-09T16:40:28.202Z,103342.88
2023-02-09T16:45:36.509Z,103344.75
2023-02-09T16:50:45.411Z,103352.75
2023-02-09T16:55:50.450Z,103350.16
2023-02-09T17:00:54.015Z,103369.00
2023-02-09T17:05:58.261Z,103374.53
2023-02-09T17:11:04.990Z,103375.16
2023-02-09T17:16:16.578Z,103387.03
2023-02-09T17:21:23.301Z,103399.47
2023-02-09T17:26:28.959Z,103397.91
2023-02-09T17:31:50.885Z,103398.22
2023-02-09T17:36:57.145Z,103406.53
2023-02-09T17:42:01.713Z,103403.00
2023-02-09T17:47:04.790Z,103406.66
2023-02-09T17:52:07.989Z,103408.03
2023-02-09T17:57:15.046Z,103408.66
2023-02-09T18:02:19.800Z,103415.56
2023-02-09T18:07:23.146Z,103419.97
2023-02-09T18:12:29.430Z,103433.31
2023-02-09T18:17:32.424Z,103432.25
2023-02-09T18:22:35.567Z,103437.78
2023-02-09T18:27:39.981Z,103440.22
2023-02-09T18:32:42.977Z,103451.50
2023-02-09T18:37:47.166Z,103457.06
2023-02-09T18:42:51.751Z,103441.19
2023-02-09T18:47:55.092Z,103462.00
2023-02-09T18:53:00.156Z,103464.41
2023-02-09T18:58:06.718Z,103467.56
2023-02-09T19:03:10.020Z,103454.75
2023-02-09T19:08:13.126Z,103482.84
2023-02-09T19:13:17.427Z,103483.38
2023-02-09T19:18:20.373Z,103495.75
2023-02-09T19:23:23.661Z,103494.75
2023-02-09T19:28:28.171Z,103492.06
2023-02-09T19:33:31.199Z,103500.25
2023-02-09T19:38:34.292Z,103501.28
2023-02-09T19:43:38.849Z,103507.66
2023-02-09T19:48:42.634Z,103517.19
2023-02-09T19:53:45.753Z,103522.47
2023-02-09T19:58:50.872Z,103515.66
2023-02-09T20:03:54.508Z,103525.56
2023-02-09T20:08:57.586Z,103522.16
2023-02-09T20:14:03.142Z,103536.25
2023-02-09T20:19:06.946Z,103545.78
2023-02-09T20:24:12.531Z,103538.44
2023-02-09T20:29:17.255Z,103543.47
2023-02-09T20:34:20.452Z,103545.19
2023-02-09T20:39:23.545Z,103556.38
2023-02-09T20:44:45.080Z,103543.16
2023-02-09T20:49:48.345Z,103550.94
2023-02-09T20:54:51.355Z,103566.72
2023-02-09T20:59:56.044Z,103549.22
2023-02-09T21:04:59.611Z,103560.72
2023-02-09T21:10:02.795Z,103572.97
2023-02-09T21:15:08.610Z,103575.41
2023-02-09T21:20:12.357Z,103575.06
2023-02-09T21:25:15.418Z,103576.00
2023-02-09T21:30:20.204Z,103588.28
2023-02-09T21:35:24.148Z,103586.78
2023-02-09T21:40:27.647Z,103594.59
2023-02-09T21:45:32.224Z,103588.88
2023-02-09T21:50:35.295Z,103577.09
2023-02-09T21:55:38.309Z,103596.84
2023-02-09T22:00:42.690Z,103588.75
2023-02-09T22:05:45.663Z,103597.41
2023-02-09T22:10:51.074Z,103599.84
2023-02-09T22:15:57.254Z,103601.88
2023-02-09T22:21:02.830Z,103597.66
2023-02-09T22:26:07.059Z,103593.22
2023-02-09T22:31:14.314Z,103589.88
2023-02-09T22:36:19.934Z,103576.94
2023-02-09T22:41:24.526Z,103592.09
2023-02-09T22:46:31.278Z,103594.53
2023-02-09T22:51:36.706Z,103590.28
2023-02-09T22:56:39.708Z,103590.09
2023-02-09T23:01:44.576Z,103596.75
2023-02-09T23:06:47.942Z,103602.81
2023-02-09T23:11:51.415Z,103603.94
2023-02-09T23:16:55.839Z,103603.59
2023-02-09T23:21:58.842Z,103610.44
2023-02-09T23:27:02.024Z,103600.06
2023-02-09T23:32:06.360Z,103586.94
2023-02-09T23:37:18.502Z,103600.25
2023-02-09T23:42:21.893Z,103599.72
2023-02-09T23:47:26.340Z,103610.59
2023-02-09T23:52:29.481Z,103612.63
2023-02-09T23:57:32.568Z,103613.19
